sensor_id;sensor_type;location;lat;lon;timestamp;P1;durP1;ratioP1;P2;durP2;ratioP2
42186;SDS011;27858;51.414;0.018;2022-12-07T00:01:20;13.60;;;4.07;;
42186;SDS011;27858;51.414;0.018;2022-12-07T00:03:47;12.25;;;4.38;;
42186;SDS011;27858;51.414;0.018;2022-12-07T00:06:16;11.73;;;4.15;;
42186;SDS011;27858;51.414;0.018;2022-12-07T00:08:43;9.52;;;4.25;;
42186;SDS011;27858;51.414;0.018;2022-12-07T00:11:11;9.48;;;4.47;;
42186;SDS011;27858;51.414;0.018;2022-12-07T00:13:40;11.98;;;4.13;;
42186;SDS011;27858;51.414;0.018;2022-12-07T00:16:08;10.10;;;3.88;;
42186;SDS011;27858;51.414;0.018;2022-12-07T00:18:38;7.95;;;4.13;;
42186;SDS011;27858;51.414;0.018;2022-12-07T00:21:12;6.03;;;3.50;;
42186;SDS011;27858;51.414;0.018;2022-12-07T00:23:42;16.98;;;4.47;;
42186;SDS011;27858;51.414;0.018;2022-12-07T00:26:14;8.82;;;3.58;;
42186;SDS011;27858;51.414;0.018;2022-12-07T00:28:50;10.73;;;4.80;;
42186;SDS011;27858;51.414;0.018;2022-12-07T00:31:21;8.77;;;4.10;;
42186;SDS011;27858;51.414;0.018;2022-12-07T00:33:49;8.27;;;3.88;;
42186;SDS011;27858;51.414;0.018;2022-12-07T00:36:20;10.15;;;3.92;;
42186;SDS011;27858;51.414;0.018;2022-12-07T00:38:52;9.65;;;4.15;;
42186;SDS011;27858;51.414;0.018;2022-12-07T00:41:21;6.43;;;3.42;;
42186;SDS011;27858;51.414;0.018;2022-12-07T00:43:49;6.20;;;3.22;;
42186;SDS011;27858;51.414;0.018;2022-12-07T00:46:16;9.38;;;3.47;;
42186;SDS011;27858;51.414;0.018;2022-12-07T00:48:45;6.57;;;3.05;;
42186;SDS011;27858;51.414;0.018;2022-12-07T00:51:12;8.80;;;3.53;;
42186;SDS011;27858;51.414;0.018;2022-12-07T00:53:40;9.70;;;4.90;;
42186;SDS011;27858;51.414;0.018;2022-12-07T00:58:54;5.82;;;3.50;;
42186;SDS011;27858;51.414;0.018;2022-12-07T05:01:37;13.05;;;4.25;;
42186;SDS011;27858;51.414;0.018;2022-12-07T05:04:05;6.43;;;3.55;;
42186;SDS011;27858;51.414;0.018;2022-12-07T05:06:32;6.15;;;3.33;;
42186;SDS011;27858;51.414;0.018;2022-12-07T05:08:59;12.65;;;4.82;;
42186;SDS011;27858;51.414;0.018;2022-12-07T05:11:26;5.72;;;3.40;;
42186;SDS011;27858;51.414;0.018;2022-12-07T05:16:46;7.13;;;3.85;;
42186;SDS011;27858;51.414;0.018;2022-12-07T05:19:15;4.93;;;2.83;;
42186;SDS011;27858;51.414;0.018;2022-12-07T05:21:42;19.13;;;3.97;;
42186;SDS011;27858;51.414;0.018;2022-12-07T05:24:12;7.43;;;3.75;;
42186;SDS011;27858;51.414;0.018;2022-12-07T05:26:40;10.10;;;4.05;;
42186;SDS011;27858;51.414;0.018;2022-12-07T05:29:07;6.75;;;4.00;;
42186;SDS011;27858;51.414;0.018;2022-12-07T05:31:38;6.50;;;3.28;;
42186;SDS011;27858;51.414;0.018;2022-12-07T05:34:05;6.53;;;4.03;;
42186;SDS011;27858;51.414;0.018;2022-12-07T05:36:32;4.28;;;2.70;;
42186;SDS011;27858;51.414;0.018;2022-12-07T05:38:59;9.60;;;3.97;;
42186;SDS011;27858;51.414;0.018;2022-12-07T05:41:25;5.07;;;2.70;;
42186;SDS011;27858;51.414;0.018;2022-12-07T05:44:11;7.32;;;2.95;;
42186;SDS011;27858;51.414;0.018;2022-12-07T05:46:37;4.88;;;3.45;;
42186;SDS011;27858;51.414;0.018;2022-12-07T05:49:04;4.55;;;2.53;;
42186;SDS011;27858;51.414;0.018;2022-12-07T05:51:31;4.68;;;2.85;;
42186;SDS011;27858;51.414;0.018;2022-12-07T05:53:58;10.07;;;3.22;;
42186;SDS011;27858;51.414;0.018;2022-12-07T05:56:25;5.00;;;3.17;;
42186;SDS011;27858;51.414;0.018;2022-12-07T05:58:53;7.93;;;3.65;;
42186;SDS011;27858;51.414;0.018;2022-12-07T06:01:38;5.80;;;3.25;;
42186;SDS011;27858;51.414;0.018;2022-12-07T06:04:06;10.57;;;3.53;;
42186;SDS011;27858;51.414;0.018;2022-12-07T06:06:33;6.45;;;2.70;;
42186;SDS011;27858;51.414;0.018;2022-12-07T06:08:59;4.15;;;2.40;;
42186;SDS011;27858;51.414;0.018;2022-12-07T06:11:26;5.35;;;3.03;;
42186;SDS011;27858;51.414;0.018;2022-12-07T06:14:12;9.38;;;3.05;;
42186;SDS011;27858;51.414;0.018;2022-12-07T06:16:39;8.50;;;3.50;;
42186;SDS011;27858;51.414;0.018;2022-12-07T06:19:06;8.38;;;3.55;;
42186;SDS011;27858;51.414;0.018;2022-12-07T06:21:32;9.65;;;3.10;;
42186;SDS011;27858;51.414;0.018;2022-12-07T06:23:59;5.43;;;3.13;;
42186;SDS011;27858;51.414;0.018;2022-12-07T06:26:26;7.57;;;3.78;;
42186;SDS011;27858;51.414;0.018;2022-12-07T06:28:53;4.88;;;2.58;;
42186;SDS011;27858;51.414;0.018;2022-12-07T06:31:19;10.73;;;3.20;;
42186;SDS011;27858;51.414;0.018;2022-12-07T06:33:46;7.38;;;3.20;;
42186;SDS011;27858;51.414;0.018;2022-12-07T06:36:13;9.13;;;3.85;;
42186;SDS011;27858;51.414;0.018;2022-12-07T06:38:40;5.43;;;2.67;;
42186;SDS011;27858;51.414;0.018;2022-12-07T06:41:07;6.82;;;3.50;;
42186;SDS011;27858;51.414;0.018;2022-12-07T06:43:34;9.18;;;3.38;;
42186;SDS011;27858;51.414;0.018;2022-12-07T06:46:00;5.60;;;3.17;;
42186;SDS011;27858;51.414;0.018;2022-12-07T06:48:27;5.68;;;2.30;;
42186;SDS011;27858;51.414;0.018;2022-12-07T06:50:54;9.85;;;3.95;;
42186;SDS011;27858;51.414;0.018;2022-12-07T06:53:21;7.70;;;2.83;;
42186;SDS011;27858;51.414;0.018;2022-12-07T06:55:48;11.43;;;4.40;;
42186;SDS011;27858;51.414;0.018;2022-12-07T06:58:15;9.40;;;4.00;;
42186;SDS011;27858;51.414;0.018;2022-12-07T07:00:42;5.50;;;3.05;;
42186;SDS011;27858;51.414;0.018;2022-12-07T07:03:10;11.93;;;2.95;;
42186;SDS011;27858;51.414;0.018;2022-12-07T07:05:36;6.40;;;3.15;;
42186;SDS011;27858;51.414;0.018;2022-12-07T07:08:03;6.55;;;3.72;;
42186;SDS011;27858;51.414;0.018;2022-12-07T07:10:47;7.72;;;3.08;;
42186;SDS011;27858;51.414;0.018;2022-12-07T07:13:14;6.22;;;3.25;;
42186;SDS011;27858;51.414;0.018;2022-12-07T07:15:41;7.15;;;2.70;;
42186;SDS011;27858;51.414;0.018;2022-12-07T07:18:08;8.13;;;3.50;;
42186;SDS011;27858;51.414;0.018;2022-12-07T07:20:35;8.50;;;3.60;;
42186;SDS011;27858;51.414;0.018;2022-12-07T07:23:03;6.20;;;3.30;;
42186;SDS011;27858;51.414;0.018;2022-12-07T07:25:30;7.40;;;4.22;;
42186;SDS011;27858;51.414;0.018;2022-12-07T07:27:57;6.00;;;4.03;;
42186;SDS011;27858;51.414;0.018;2022-12-07T07:30:24;5.88;;;3.17;;
42186;SDS011;27858;51.414;0.018;2022-12-07T07:32:51;3.92;;;2.70;;
42186;SDS011;27858;51.414;0.018;2022-12-07T07:35:27;5.80;;;2.53;;
42186;SDS011;27858;51.414;0.018;2022-12-07T07:37:55;4.50;;;2.95;;
42186;SDS011;27858;51.414;0.018;2022-12-07T07:40:22;5.65;;;3.00;;
42186;SDS011;27858;51.414;0.018;2022-12-07T07:42:50;5.65;;;2.55;;
42186;SDS011;27858;51.414;0.018;2022-12-07T07:45:19;4.78;;;2.83;;
42186;SDS011;27858;51.414;0.018;2022-12-07T07:47:46;7.57;;;2.80;;
42186;SDS011;27858;51.414;0.018;2022-12-07T07:50:13;6.88;;;2.67;;
42186;SDS011;27858;51.414;0.018;2022-12-07T07:52:40;8.25;;;3.03;;
42186;SDS011;27858;51.414;0.018;2022-12-07T07:55:07;5.00;;;2.72;;
42186;SDS011;27858;51.414;0.018;2022-12-07T07:57:35;5.15;;;2.67;;
42186;SDS011;27858;51.414;0.018;2022-12-07T08:00:09;6.63;;;3.53;;
42186;SDS011;27858;51.414;0.018;2022-12-07T08:02:40;5.13;;;2.92;;
42186;SDS011;27858;51.414;0.018;2022-12-07T08:05:09;6.68;;;2.88;;
42186;SDS011;27858;51.414;0.018;2022-12-07T08:07:37;17.92;;;4.50;;
42186;SDS011;27858;51.414;0.018;2022-12-07T08:10:08;7.53;;;3.28;;
42186;SDS011;27858;51.414;0.018;2022-12-07T08:12:38;3.85;;;2.58;;
42186;SDS011;27858;51.414;0.018;2022-12-07T08:15:27;9.23;;;3.10;;
42186;SDS011;27858;51.414;0.018;2022-12-07T08:17:55;6.50;;;2.85;;
42186;SDS011;27858;51.414;0.018;2022-12-07T08:20:22;6.40;;;3.63;;
42186;SDS011;27858;51.414;0.018;2022-12-07T08:22:49;7.65;;;3.42;;
42186;SDS011;27858;51.414;0.018;2022-12-07T08:25:16;4.22;;;3.33;;
42186;SDS011;27858;51.414;0.018;2022-12-07T08:27:43;5.47;;;2.80;;
42186;SDS011;27858;51.414;0.018;2022-12-07T08:30:09;15.95;;;4.75;;
42186;SDS011;27858;51.414;0.018;2022-12-07T08:32:36;7.60;;;2.40;;
42186;SDS011;27858;51.414;0.018;2022-12-07T08:35:03;7.97;;;3.50;;
42186;SDS011;27858;51.414;0.018;2022-12-07T08:37:30;8.02;;;3.70;;
42186;SDS011;27858;51.414;0.018;2022-12-07T08:39:57;3.88;;;2.92;;
42186;SDS011;27858;51.414;0.018;2022-12-07T08:42:25;7.03;;;4.05;;
42186;SDS011;27858;51.414;0.018;2022-12-07T08:44:56;8.55;;;3.28;;
42186;SDS011;27858;51.414;0.018;2022-12-07T08:47:23;9.45;;;3.30;;
42186;SDS011;27858;51.414;0.018;2022-12-07T08:49:51;5.75;;;3.90;;
42186;SDS011;27858;51.414;0.018;2022-12-07T08:52:19;11.35;;;3.40;;
42186;SDS011;27858;51.414;0.018;2022-12-07T08:54:45;11.48;;;3.40;;
42186;SDS011;27858;51.414;0.018;2022-12-07T08:57:13;3.53;;;1.90;;
42186;SDS011;27858;51.414;0.018;2022-12-07T08:59:39;12.18;;;2.60;;
42186;SDS011;27858;51.414;0.018;2022-12-07T09:02:06;4.60;;;2.53;;
42186;SDS011;27858;51.414;0.018;2022-12-07T09:04:33;7.38;;;3.50;;
42186;SDS011;27858;51.414;0.018;2022-12-07T09:07:00;7.13;;;2.58;;
42186;SDS011;27858;51.414;0.018;2022-12-07T09:09:27;6.20;;;2.88;;
42186;SDS011;27858;51.414;0.018;2022-12-07T09:11:54;9.02;;;2.55;;
42186;SDS011;27858;51.414;0.018;2022-12-07T09:14:21;10.00;;;3.63;;
42186;SDS011;27858;51.414;0.018;2022-12-07T09:16:47;6.18;;;2.72;;
42186;SDS011;27858;51.414;0.018;2022-12-07T09:19:14;4.43;;;2.92;;
42186;SDS011;27858;51.414;0.018;2022-12-07T09:21:41;6.75;;;2.90;;
42186;SDS011;27858;51.414;0.018;2022-12-07T09:24:08;9.95;;;3.03;;
42186;SDS011;27858;51.414;0.018;2022-12-07T09:26:35;7.53;;;2.50;;
42186;SDS011;27858;51.414;0.018;2022-12-07T09:29:02;5.50;;;2.50;;
42186;SDS011;27858;51.414;0.018;2022-12-07T09:31:29;11.40;;;4.25;;
42186;SDS011;27858;51.414;0.018;2022-12-07T09:33:56;8.02;;;2.78;;
42186;SDS011;27858;51.414;0.018;2022-12-07T09:36:25;7.50;;;3.05;;
42186;SDS011;27858;51.414;0.018;2022-12-07T09:38:53;6.68;;;2.20;;
42186;SDS011;27858;51.414;0.018;2022-12-07T09:41:19;4.85;;;2.55;;
42186;SDS011;27858;51.414;0.018;2022-12-07T09:43:48;4.93;;;2.97;;
42186;SDS011;27858;51.414;0.018;2022-12-07T09:46:15;6.90;;;2.47;;
42186;SDS011;27858;51.414;0.018;2022-12-07T09:48:45;8.45;;;2.90;;
42186;SDS011;27858;51.414;0.018;2022-12-07T09:51:20;4.13;;;2.45;;
42186;SDS011;27858;51.414;0.018;2022-12-07T09:53:54;4.95;;;2.60;;
42186;SDS011;27858;51.414;0.018;2022-12-07T09:56:23;8.93;;;3.60;;
42186;SDS011;27858;51.414;0.018;2022-12-07T09:58:55;10.95;;;3.08;;
42186;SDS011;27858;51.414;0.018;2022-12-07T10:01:28;6.60;;;2.80;;
42186;SDS011;27858;51.414;0.018;2022-12-07T10:06:47;10.55;;;3.15;;
42186;SDS011;27858;51.414;0.018;2022-12-07T10:09:18;7.10;;;2.85;;
42186;SDS011;27858;51.414;0.018;2022-12-07T10:12:08;6.28;;;2.45;;
42186;SDS011;27858;51.414;0.018;2022-12-07T10:14:36;3.30;;;2.40;;
42186;SDS011;27858;51.414;0.018;2022-12-07T10:19:51;3.67;;;2.47;;
42186;SDS011;27858;51.414;0.018;2022-12-07T10:22:19;5.53;;;3.00;;
42186;SDS011;27858;51.414;0.018;2022-12-07T10:24:46;9.52;;;3.05;;
42186;SDS011;27858;51.414;0.018;2022-12-07T10:27:26;4.70;;;2.88;;
42186;SDS011;27858;51.414;0.018;2022-12-07T10:29:57;6.25;;;2.95;;
42186;SDS011;27858;51.414;0.018;2022-12-07T10:32:29;5.20;;;2.58;;
42186;SDS011;27858;51.414;0.018;2022-12-07T10:37:42;5.63;;;3.05;;
42186;SDS011;27858;51.414;0.018;2022-12-07T10:40:23;8.75;;;2.90;;
42186;SDS011;27858;51.414;0.018;2022-12-07T10:43:00;7.15;;;3.20;;
42186;SDS011;27858;51.414;0.018;2022-12-07T10:51:07;5.85;;;2.45;;
42186;SDS011;27858;51.414;0.018;2022-12-07T11:07:14;7.57;;;3.30;;
42186;SDS011;27858;51.414;0.018;2022-12-07T11:21:56;10.32;;;3.15;;
42186;SDS011;27858;51.414;0.018;2022-12-07T11:24:40;11.55;;;3.28;;
42186;SDS011;27858;51.414;0.018;2022-12-07T11:35:26;7.25;;;3.55;;
42186;SDS011;27858;51.414;0.018;2022-12-07T11:38:07;6.55;;;2.95;;
42186;SDS011;27858;51.414;0.018;2022-12-07T11:40:40;6.95;;;3.00;;
42186;SDS011;27858;51.414;0.018;2022-12-07T11:43:27;5.55;;;2.88;;
42186;SDS011;27858;51.414;0.018;2022-12-07T11:46:06;7.32;;;2.97;;
42186;SDS011;27858;51.414;0.018;2022-12-07T11:48:40;6.57;;;3.25;;
42186;SDS011;27858;51.414;0.018;2022-12-07T11:51:12;7.40;;;3.30;;
42186;SDS011;27858;51.414;0.018;2022-12-07T11:53:46;6.70;;;3.47;;
42186;SDS011;27858;51.414;0.018;2022-12-07T11:56:16;8.20;;;3.90;;
42186;SDS011;27858;51.414;0.018;2022-12-07T11:58:51;7.38;;;2.92;;
42186;SDS011;27858;51.414;0.018;2022-12-07T12:06:38;7.57;;;3.08;;
42186;SDS011;27858;51.414;0.018;2022-12-07T12:22:59;12.05;;;3.30;;
42186;SDS011;27858;51.414;0.018;2022-12-07T12:33:47;8.48;;;3.17;;
42186;SDS011;27858;51.414;0.018;2022-12-07T12:36:20;10.32;;;3.38;;
42186;SDS011;27858;51.414;0.018;2022-12-07T13:00:45;8.68;;;4.55;;
42186;SDS011;27858;51.414;0.018;2022-12-07T13:03:29;7.85;;;4.32;;
42186;SDS011;27858;51.414;0.018;2022-12-07T13:08:43;6.47;;;3.85;;
42186;SDS011;27858;51.414;0.018;2022-12-07T13:11:20;8.90;;;3.47;;
42186;SDS011;27858;51.414;0.018;2022-12-07T13:17:02;6.97;;;3.92;;
42186;SDS011;27858;51.414;0.018;2022-12-07T13:25:09;9.32;;;3.78;;
42186;SDS011;27858;51.414;0.018;2022-12-07T13:27:48;9.32;;;3.50;;
42186;SDS011;27858;51.414;0.018;2022-12-07T13:30:43;7.18;;;3.25;;
42186;SDS011;27858;51.414;0.018;2022-12-07T13:33:13;4.63;;;2.72;;
42186;SDS011;27858;51.414;0.018;2022-12-07T13:35:43;8.80;;;2.95;;
42186;SDS011;27858;51.414;0.018;2022-12-07T13:38:23;6.38;;;3.05;;
42186;SDS011;27858;51.414;0.018;2022-12-07T13:40:59;4.25;;;3.05;;
42186;SDS011;27858;51.414;0.018;2022-12-07T13:43:29;9.82;;;3.13;;
42186;SDS011;27858;51.414;0.018;2022-12-07T13:45:57;6.93;;;2.78;;
42186;SDS011;27858;51.414;0.018;2022-12-07T13:48:32;7.05;;;3.33;;
42186;SDS011;27858;51.414;0.018;2022-12-07T13:51:14;5.35;;;2.33;;
42186;SDS011;27858;51.414;0.018;2022-12-07T13:53:48;5.97;;;2.75;;
42186;SDS011;27858;51.414;0.018;2022-12-07T13:56:16;6.53;;;2.15;;
42186;SDS011;27858;51.414;0.018;2022-12-07T13:58:43;8.77;;;2.45;;
42186;SDS011;27858;51.414;0.018;2022-12-07T14:01:10;11.77;;;3.55;;
42186;SDS011;27858;51.414;0.018;2022-12-07T14:03:39;8.55;;;3.15;;
42186;SDS011;27858;51.414;0.018;2022-12-07T14:06:10;5.75;;;2.85;;
42186;SDS011;27858;51.414;0.018;2022-12-07T14:08:42;5.85;;;3.10;;
42186;SDS011;27858;51.414;0.018;2022-12-07T14:11:12;5.47;;;3.60;;
42186;SDS011;27858;51.414;0.018;2022-12-07T14:13:51;7.38;;;3.92;;
42186;SDS011;27858;51.414;0.018;2022-12-07T14:16:34;5.43;;;2.92;;
42186;SDS011;27858;51.414;0.018;2022-12-07T14:19:04;7.00;;;3.17;;
42186;SDS011;27858;51.414;0.018;2022-12-07T14:22:05;7.85;;;3.60;;
42186;SDS011;27858;51.414;0.018;2022-12-07T14:27:18;5.43;;;2.67;;
42186;SDS011;27858;51.414;0.018;2022-12-07T14:29:49;3.50;;;2.03;;
42186;SDS011;27858;51.414;0.018;2022-12-07T14:32:35;4.20;;;1.83;;
42186;SDS011;27858;51.414;0.018;2022-12-07T14:35:10;12.00;;;2.47;;
42186;SDS011;27858;51.414;0.018;2022-12-07T14:37:39;7.88;;;2.67;;
42186;SDS011;27858;51.414;0.018;2022-12-07T14:40:11;3.30;;;2.08;;
42186;SDS011;27858;51.414;0.018;2022-12-07T14:42:53;5.53;;;2.25;;
42186;SDS011;27858;51.414;0.018;2022-12-07T14:45:27;6.30;;;2.60;;
42186;SDS011;27858;51.414;0.018;2022-12-07T14:47:54;5.60;;;2.95;;
42186;SDS011;27858;51.414;0.018;2022-12-07T14:50:44;6.68;;;2.60;;
42186;SDS011;27858;51.414;0.018;2022-12-07T14:53:36;5.38;;;2.75;;
42186;SDS011;27858;51.414;0.018;2022-12-07T14:56:09;5.80;;;2.33;;
42186;SDS011;27858;51.414;0.018;2022-12-07T14:58:35;3.83;;;2.13;;
42186;SDS011;27858;51.414;0.018;2022-12-07T15:01:02;8.68;;;3.53;;
42186;SDS011;27858;51.414;0.018;2022-12-07T15:03:29;4.18;;;2.70;;
42186;SDS011;27858;51.414;0.018;2022-12-07T15:05:56;6.20;;;2.75;;
42186;SDS011;27858;51.414;0.018;2022-12-07T15:08:23;5.32;;;2.67;;
42186;SDS011;27858;51.414;0.018;2022-12-07T15:10:50;4.63;;;2.47;;
42186;SDS011;27858;51.414;0.018;2022-12-07T15:13:17;8.50;;;3.13;;
42186;SDS011;27858;51.414;0.018;2022-12-07T15:16:02;6.30;;;3.17;;
42186;SDS011;27858;51.414;0.018;2022-12-07T15:18:29;3.97;;;2.13;;
42186;SDS011;27858;51.414;0.018;2022-12-07T15:20:56;5.82;;;2.63;;
42186;SDS011;27858;51.414;0.018;2022-12-07T15:23:23;6.10;;;2.95;;
42186;SDS011;27858;51.414;0.018;2022-12-07T15:25:50;7.00;;;3.15;;
42186;SDS011;27858;51.414;0.018;2022-12-07T15:28:16;8.48;;;2.50;;
42186;SDS011;27858;51.414;0.018;2022-12-07T15:30:43;4.53;;;1.75;;
42186;SDS011;27858;51.414;0.018;2022-12-07T15:33:11;4.55;;;2.03;;
42186;SDS011;27858;51.414;0.018;2022-12-07T15:35:42;5.32;;;2.50;;
42186;SDS011;27858;51.414;0.018;2022-12-07T15:38:10;5.70;;;2.77;;
42186;SDS011;27858;51.414;0.018;2022-12-07T15:40:37;5.85;;;2.63;;
42186;SDS011;27858;51.414;0.018;2022-12-07T15:43:04;8.70;;;2.60;;
42186;SDS011;27858;51.414;0.018;2022-12-07T15:45:51;4.70;;;2.22;;
42186;SDS011;27858;51.414;0.018;2022-12-07T15:48:18;5.82;;;3.35;;
42186;SDS011;27858;51.414;0.018;2022-12-07T15:51:05;4.68;;;2.33;;
42186;SDS011;27858;51.414;0.018;2022-12-07T15:53:33;6.28;;;2.70;;
42186;SDS011;27858;51.414;0.018;2022-12-07T15:56:01;3.65;;;3.30;;
42186;SDS011;27858;51.414;0.018;2022-12-07T15:58:31;2.85;;;2.45;;
42186;SDS011;27858;51.414;0.018;2022-12-07T16:00:58;5.18;;;2.30;;
42186;SDS011;27858;51.414;0.018;2022-12-07T16:03:26;3.92;;;2.75;;
42186;SDS011;27858;51.414;0.018;2022-12-07T16:05:53;11.05;;;3.58;;
42186;SDS011;27858;51.414;0.018;2022-12-07T16:08:20;8.70;;;3.38;;
42186;SDS011;27858;51.414;0.018;2022-12-07T16:10:47;5.00;;;2.63;;
42186;SDS011;27858;51.414;0.018;2022-12-07T16:13:13;5.50;;;3.13;;
42186;SDS011;27858;51.414;0.018;2022-12-07T16:15:40;12.98;;;3.15;;
42186;SDS011;27858;51.414;0.018;2022-12-07T16:18:08;10.10;;;3.78;;
42186;SDS011;27858;51.414;0.018;2022-12-07T16:20:35;15.10;;;3.40;;
42186;SDS011;27858;51.414;0.018;2022-12-07T16:23:01;9.82;;;4.80;;
42186;SDS011;27858;51.414;0.018;2022-12-07T16:25:28;7.18;;;3.35;;
42186;SDS011;27858;51.414;0.018;2022-12-07T16:27:55;7.53;;;3.78;;
42186;SDS011;27858;51.414;0.018;2022-12-07T16:30:21;7.05;;;3.80;;
42186;SDS011;27858;51.414;0.018;2022-12-07T16:32:48;8.88;;;5.60;;
42186;SDS011;27858;51.414;0.018;2022-12-07T16:35:15;8.23;;;4.32;;
42186;SDS011;27858;51.414;0.018;2022-12-07T16:37:42;9.82;;;5.22;;
42186;SDS011;27858;51.414;0.018;2022-12-07T16:40:09;10.45;;;4.25;;
42186;SDS011;27858;51.414;0.018;2022-12-07T16:42:38;7.65;;;3.30;;
42186;SDS011;27858;51.414;0.018;2022-12-07T16:45:05;10.73;;;5.07;;
42186;SDS011;27858;51.414;0.018;2022-12-07T16:47:32;9.13;;;4.30;;
42186;SDS011;27858;51.414;0.018;2022-12-07T16:49:58;6.70;;;3.33;;
42186;SDS011;27858;51.414;0.018;2022-12-07T16:52:25;10.32;;;5.03;;
42186;SDS011;27858;51.414;0.018;2022-12-07T16:54:52;8.52;;;4.10;;
42186;SDS011;27858;51.414;0.018;2022-12-07T16:57:19;7.22;;;3.35;;
42186;SDS011;27858;51.414;0.018;2022-12-07T16:59:49;8.50;;;3.50;;
42186;SDS011;27858;51.414;0.018;2022-12-07T17:02:16;7.45;;;3.25;;
42186;SDS011;27858;51.414;0.018;2022-12-07T17:04:43;5.88;;;3.13;;
42186;SDS011;27858;51.414;0.018;2022-12-07T17:07:10;7.40;;;3.60;;
42186;SDS011;27858;51.414;0.018;2022-12-07T17:09:36;16.83;;;6.50;;
42186;SDS011;27858;51.414;0.018;2022-12-07T17:12:03;38.55;;;11.95;;
42186;SDS011;27858;51.414;0.018;2022-12-07T17:14:32;31.05;;;9.88;;
42186;SDS011;27858;51.414;0.018;2022-12-07T17:17:17;28.08;;;9.07;;
42186;SDS011;27858;51.414;0.018;2022-12-07T17:19:44;14.43;;;6.90;;
42186;SDS011;27858;51.414;0.018;2022-12-07T17:22:13;9.25;;;5.05;;
42186;SDS011;27858;51.414;0.018;2022-12-07T17:24:40;9.68;;;4.68;;
42186;SDS011;27858;51.414;0.018;2022-12-07T17:27:07;5.43;;;3.60;;
42186;SDS011;27858;51.414;0.018;2022-12-07T17:29:34;11.02;;;4.65;;
42186;SDS011;27858;51.414;0.018;2022-12-07T17:32:01;16.30;;;5.55;;
42186;SDS011;27858;51.414;0.018;2022-12-07T17:34:27;10.80;;;4.72;;
42186;SDS011;27858;51.414;0.018;2022-12-07T17:36:54;5.97;;;3.92;;
42186;SDS011;27858;51.414;0.018;2022-12-07T17:39:21;13.88;;;6.70;;
42186;SDS011;27858;51.414;0.018;2022-12-07T17:41:48;9.27;;;4.95;;
42186;SDS011;27858;51.414;0.018;2022-12-07T17:44:33;11.00;;;4.32;;
42186;SDS011;27858;51.414;0.018;2022-12-07T17:47:00;7.40;;;3.33;;
42186;SDS011;27858;51.414;0.018;2022-12-07T17:49:29;8.60;;;3.28;;
42186;SDS011;27858;51.414;0.018;2022-12-07T17:51:55;9.55;;;3.60;;
42186;SDS011;27858;51.414;0.018;2022-12-07T17:54:41;9.73;;;4.38;;
42186;SDS011;27858;51.414;0.018;2022-12-07T17:57:10;10.55;;;3.90;;
42186;SDS011;27858;51.414;0.018;2022-12-07T17:59:37;8.50;;;4.57;;
42186;SDS011;27858;51.414;0.018;2022-12-07T18:02:04;8.30;;;4.72;;
42186;SDS011;27858;51.414;0.018;2022-12-07T18:04:31;5.68;;;4.50;;
42186;SDS011;27858;51.414;0.018;2022-12-07T18:06:58;21.63;;;5.10;;
42186;SDS011;27858;51.414;0.018;2022-12-07T18:09:25;9.57;;;5.03;;
42186;SDS011;27858;51.414;0.018;2022-12-07T18:11:52;14.48;;;4.80;;
42186;SDS011;27858;51.414;0.018;2022-12-07T18:14:19;9.43;;;5.47;;
42186;SDS011;27858;51.414;0.018;2022-12-07T18:16:46;8.70;;;4.97;;
42186;SDS011;27858;51.414;0.018;2022-12-07T18:19:14;12.38;;;5.03;;
42186;SDS011;27858;51.414;0.018;2022-12-07T18:21:42;10.02;;;4.75;;
42186;SDS011;27858;51.414;0.018;2022-12-07T18:24:10;13.27;;;5.00;;
42186;SDS011;27858;51.414;0.018;2022-12-07T18:26:38;15.98;;;5.78;;
42186;SDS011;27858;51.414;0.018;2022-12-07T18:29:06;11.63;;;6.63;;
42186;SDS011;27858;51.414;0.018;2022-12-07T18:31:34;26.60;;;8.77;;
42186;SDS011;27858;51.414;0.018;2022-12-07T18:34:03;34.70;;;13.80;;
42186;SDS011;27858;51.414;0.018;2022-12-07T18:36:33;22.97;;;10.13;;
42186;SDS011;27858;51.414;0.018;2022-12-07T18:39:02;21.63;;;7.50;;
42186;SDS011;27858;51.414;0.018;2022-12-07T18:41:30;19.77;;;8.02;;
42186;SDS011;27858;51.414;0.018;2022-12-07T18:43:57;13.32;;;6.10;;
42186;SDS011;27858;51.414;0.018;2022-12-07T18:46:24;15.23;;;5.07;;
42186;SDS011;27858;51.414;0.018;2022-12-07T18:48:51;13.93;;;5.25;;
42186;SDS011;27858;51.414;0.018;2022-12-07T18:51:18;10.93;;;5.50;;
42186;SDS011;27858;51.414;0.018;2022-12-07T18:53:46;10.30;;;4.30;;
42186;SDS011;27858;51.414;0.018;2022-12-07T18:56:14;8.63;;;4.55;;
42186;SDS011;27858;51.414;0.018;2022-12-07T18:58:42;14.82;;;5.25;;
42186;SDS011;27858;51.414;0.018;2022-12-07T19:01:32;14.05;;;5.43;;
42186;SDS011;27858;51.414;0.018;2022-12-07T19:04:00;9.45;;;4.63;;
42186;SDS011;27858;51.414;0.018;2022-12-07T19:06:27;12.20;;;5.63;;
42186;SDS011;27858;51.414;0.018;2022-12-07T19:08:54;14.32;;;5.70;;
42186;SDS011;27858;51.414;0.018;2022-12-07T19:11:31;13.05;;;5.07;;
42186;SDS011;27858;51.414;0.018;2022-12-07T19:14:24;13.07;;;5.65;;
42186;SDS011;27858;51.414;0.018;2022-12-07T19:16:57;12.35;;;5.90;;
42186;SDS011;27858;51.414;0.018;2022-12-07T19:19:29;20.75;;;8.70;;
42186;SDS011;27858;51.414;0.018;2022-12-07T19:21:58;23.23;;;9.65;;
42186;SDS011;27858;51.414;0.018;2022-12-07T19:24:25;11.95;;;6.30;;
42186;SDS011;27858;51.414;0.018;2022-12-07T19:26:52;15.40;;;6.50;;
42186;SDS011;27858;51.414;0.018;2022-12-07T19:29:19;18.73;;;6.22;;
42186;SDS011;27858;51.414;0.018;2022-12-07T19:31:46;11.70;;;5.70;;
42186;SDS011;27858;51.414;0.018;2022-12-07T19:34:14;12.88;;;6.35;;
42186;SDS011;27858;51.414;0.018;2022-12-07T19:36:42;15.32;;;5.95;;
42186;SDS011;27858;51.414;0.018;2022-12-07T19:39:10;10.77;;;5.63;;
42186;SDS011;27858;51.414;0.018;2022-12-07T19:41:40;11.68;;;5.65;;
42186;SDS011;27858;51.414;0.018;2022-12-07T19:44:12;12.40;;;6.10;;
42186;SDS011;27858;51.414;0.018;2022-12-07T19:46:45;15.73;;;7.05;;
42186;SDS011;27858;51.414;0.018;2022-12-07T19:49:15;14.60;;;6.93;;
42186;SDS011;27858;51.414;0.018;2022-12-07T19:51:43;12.35;;;6.20;;
42186;SDS011;27858;51.414;0.018;2022-12-07T19:54:12;13.05;;;6.72;;
42186;SDS011;27858;51.414;0.018;2022-12-07T19:56:41;12.88;;;6.32;;
42186;SDS011;27858;51.414;0.018;2022-12-07T19:59:08;18.48;;;7.43;;
42186;SDS011;27858;51.414;0.018;2022-12-07T20:01:35;10.82;;;5.72;;
42186;SDS011;27858;51.414;0.018;2022-12-07T20:04:04;10.88;;;6.30;;
42186;SDS011;27858;51.414;0.018;2022-12-07T20:06:32;17.23;;;6.18;;
42186;SDS011;27858;51.414;0.018;2022-12-07T20:08:59;15.70;;;7.80;;
42186;SDS011;27858;51.414;0.018;2022-12-07T20:11:26;19.73;;;7.75;;
42186;SDS011;27858;51.414;0.018;2022-12-07T20:14:12;15.32;;;5.72;;
42186;SDS011;27858;51.414;0.018;2022-12-07T20:16:39;19.25;;;7.28;;
42186;SDS011;27858;51.414;0.018;2022-12-07T20:19:06;15.88;;;7.40;;
42186;SDS011;27858;51.414;0.018;2022-12-07T20:21:34;15.80;;;8.88;;
42186;SDS011;27858;51.414;0.018;2022-12-07T20:24:03;19.58;;;7.88;;
42186;SDS011;27858;51.414;0.018;2022-12-07T20:26:32;14.60;;;6.93;;
42186;SDS011;27858;51.414;0.018;2022-12-07T20:29:00;19.83;;;8.63;;
42186;SDS011;27858;51.414;0.018;2022-12-07T20:31:37;13.10;;;5.75;;
42186;SDS011;27858;51.414;0.018;2022-12-07T20:34:04;18.23;;;6.95;;
42186;SDS011;27858;51.414;0.018;2022-12-07T20:36:31;11.98;;;6.97;;
42186;SDS011;27858;51.414;0.018;2022-12-07T20:38:59;14.90;;;7.20;;
42186;SDS011;27858;51.414;0.018;2022-12-07T20:41:27;13.88;;;5.65;;
42186;SDS011;27858;51.414;0.018;2022-12-07T20:44:13;12.13;;;6.97;;
42186;SDS011;27858;51.414;0.018;2022-12-07T20:46:40;13.63;;;6.88;;
42186;SDS011;27858;51.414;0.018;2022-12-07T20:49:08;12.75;;;6.63;;
42186;SDS011;27858;51.414;0.018;2022-12-07T20:51:36;12.13;;;6.40;;
42186;SDS011;27858;51.414;0.018;2022-12-07T20:54:02;18.02;;;7.07;;
42186;SDS011;27858;51.414;0.018;2022-12-07T20:56:30;9.02;;;5.70;;